Time;durP1;ratioP1;P1;durP2;ratioP2;P2;SDS_P1;SDS_P2;PMS_P1;PMS_P2;Temp;Humidity;BMP_temperature;BMP_pressure;BME280_temperature;BME280_humidity;BME280_pressure;Samples;Min_cycle;Max_cycle;Signal;HPM_P1;HPM_P2
2022/07/04 00:02:06;;;;;;;3.33;1.70;;;;;;;;;;4993119;28;20088;-68
2022/07/04 00:04:31;;;;;;;4.65;1.92;;;;;;;;;;4991945;28;20430;-68
2022/07/04 00:06:56;;;;;;;4.93;1.40;;;;;;;;;;4992608;28;20368;-69
2022/07/04 00:09:21;;;;;;;4.50;1.47;;;;;;;;;;4991645;28;20372;-68
2022/07/04 00:11:46;;;;;;;4.97;1.40;;;;;;;;;;5008234;28;20033;-68
2022/07/04 00:14:12;;;;;;;3.90;1.67;;;;;;;;;;4989838;28;20070;-68
2022/07/04 00:16:37;;;;;;;2.10;1.23;;;;;;;;;;4991378;28;20269;-68
2022/07/04 00:19:02;;;;;;;5.68;1.45;;;;;;;;;;4992332;28;20277;-68
2022/07/04 00:21:27;;;;;;;4.78;1.73;;;;;;;;;;4992662;28;20027;-68
2022/07/04 00:23:53;;;;;;;4.25;1.75;;;;;;;;;;4992113;28;20387;-68
2022/07/04 00:26:18;;;;;;;5.40;1.27;;;;;;;;;;4991756;28;20092;-68
2022/07/04 00:28:43;;;;;;;2.93;1.33;;;;;;;;;;4990964;28;20018;-68
2022/07/04 00:31:08;;;;;;;6.97;1.33;;;;;;;;;;4992249;28;20274;-68
2022/07/04 00:33:33;;;;;;;2.00;1.02;;;;;;;;;;4992118;28;20278;-68
2022/07/04 00:35:59;;;;;;;6.30;1.45;;;;;;;;;;4992928;28;20093;-69
2022/07/04 00:38:24;;;;;;;2.13;1.37;;;;;;;;;;4991179;28;20022;-68
2022/07/04 00:40:49;;;;;;;5.25;1.52;;;;;;;;;;4993053;28;20280;-68
2022/07/04 00:43:21;;;;;;;3.67;1.25;;;;;;;;;;4989854;28;20076;-68
2022/07/04 00:45:46;;;;;;;3.30;1.40;;;;;;;;;;4992324;28;20475;-68
2022/07/04 00:48:11;;;;;;;3.17;1.83;;;;;;;;;;4991912;28;20046;-68
2022/07/04 00:50:36;;;;;;;6.27;1.67;;;;;;;;;;4992754;28;20249;-67
2022/07/04 00:53:01;;;;;;;5.03;1.58;;;;;;;;;;4990922;28;20796;-68
2022/07/04 00:55:27;;;;;;;6.35;1.45;;;;;;;;;;4992124;28;20490;-68
2022/07/04 00:57:52;;;;;;;8.02;1.65;;;;;;;;;;4990288;28;20500;-68
2022/07/04 01:00:20;;;;;;;2.25;1.35;;;;;;;;;;4991505;28;20105;-68
2022/07/04 01:02:46;;;;;;;5.30;1.42;;;;;;;;;;4991480;28;20030;-68
2022/07/04 01:05:12;;;;;;;3.53;1.58;;;;;;;;;;4991802;28;20042;-68
2022/07/04 01:07:37;;;;;;;3.67;1.60;;;;;;;;;;4990538;28;20034;-68
2022/07/04 01:10:02;;;;;;;8.53;1.80;;;;;;;;;;4991036;28;20098;-68
2022/07/04 01:12:28;;;;;;;5.75;1.77;;;;;;;;;;4990261;28;20273;-68
2022/07/04 01:14:53;;;;;;;3.17;1.52;;;;;;;;;;5029953;23;20041;-69
2022/07/04 01:17:18;;;;;;;4.35;1.60;;;;;;;;;;5009927;28;20088;-69
2022/07/04 01:19:44;;;;;;;3.47;1.50;;;;;;;;;;5012062;28;20015;-69
2022/07/04 01:22:09;;;;;;;7.03;1.45;;;;;;;;;;5008697;28;20922;-69
2022/07/04 01:24:34;;;;;;;10.93;2.47;;;;;;;;;;5009875;28;20029;-69
2022/07/04 01:26:59;;;;;;;5.20;1.80;;;;;;;;;;5009630;28;20033;-67
2022/07/04 01:29:24;;;;;;;4.90;1.73;;;;;;;;;;5010923;28;20264;-68
2022/07/04 01:31:51;;;;;;;3.60;1.80;;;;;;;;;;5008482;28;20276;-68
2022/07/04 01:34:16;;;;;;;5.13;2.00;;;;;;;;;;5011022;28;20625;-67
2022/07/04 01:36:41;;;;;;;5.57;2.03;;;;;;;;;;5007453;28;20022;-68
2022/07/04 01:39:06;;;;;;;3.07;1.47;;;;;;;;;;5010334;28;20366;-67
2022/07/04 01:41:34;;;;;;;5.37;1.90;;;;;;;;;;5009083;28;20280;-68
2022/07/04 01:44:00;;;;;;;5.78;1.65;;;;;;;;;;5011493;28;20256;-68
2022/07/04 01:46:25;;;;;;;4.53;2.10;;;;;;;;;;5009554;28;20117;-68
2022/07/04 01:48:50;;;;;;;7.97;1.73;;;;;;;;;;5010450;28;20018;-68
2022/07/04 01:51:15;;;;;;;3.63;1.60;;;;;;;;;;5007623;28;20017;-68
2022/07/04 01:53:40;;;;;;;4.97;1.47;;;;;;;;;;5010674;28;20670;-68
2022/07/04 01:56:06;;;;;;;6.47;1.80;;;;;;;;;;5007387;28;20269;-68
2022/07/04 01:58:31;;;;;;;3.22;1.60;;;;;;;;;;5009291;28;20303;-68
2022/07/04 02:03:40;;;;;;;4.03;1.88;;;;;;;;;;5010186;28;20032;-68
2022/07/04 02:06:05;;;;;;;3.53;1.92;;;;;;;;;;5007940;28;20033;-67
2022/07/04 02:09:14;;;;;;;5.68;1.92;;;;;;;;;;5009855;28;20014;-67
2022/07/04 02:11:16;;;;;;;4.70;1.83;;;;;;;;;;5009108;28;20537;-67
2022/07/04 02:13:41;;;;;;;4.63;1.73;;;;;;;;;;5010088;28;20100;-68
2022/07/04 02:16:06;;;;;;;8.63;1.73;;;;;;;;;;5008792;28;20387;-67
2022/07/04 02:18:31;;;;;;;3.20;1.47;;;;;;;;;;5007337;28;20472;-67
2022/07/04 02:20:56;;;;;;;6.33;2.13;;;;;;;;;;5006500;28;20351;-67
2022/07/04 02:23:21;;;;;;;4.20;1.83;;;;;;;;;;5008539;28;20281;-67
2022/07/04 02:25:47;;;;;;;4.00;1.80;;;;;;;;;;5009913;28;20326;-69
2022/07/04 02:28:12;;;;;;;3.40;1.83;;;;;;;;;;5010207;28;20280;-68
2022/07/04 02:30:37;;;;;;;6.63;1.90;;;;;;;;;;5008987;28;20371;-68
2022/07/04 02:33:02;;;;;;;2.00;1.60;;;;;;;;;;5008719;28;20104;-67
2022/07/04 02:35:28;;;;;;;3.88;1.83;;;;;;;;;;5008236;28;20828;-68
2022/07/04 02:37:53;;;;;;;5.70;1.88;;;;;;;;;;5008238;28;20063;-68
2022/07/04 02:40:18;;;;;;;2.97;1.67;;;;;;;;;;5009947;28;20033;-69
2022/07/04 02:42:43;;;;;;;7.07;1.80;;;;;;;;;;5008089;28;20642;-68
2022/07/04 02:45:09;;;;;;;2.97;1.55;;;;;;;;;;5009539;28;20308;-67
2022/07/04 02:47:34;;;;;;;7.10;1.88;;;;;;;;;;5007026;28;20489;-67
2022/07/04 02:50:02;;;;;;;3.85;1.80;;;;;;;;;;5008589;28;20045;-68
2022/07/04 02:52:27;;;;;;;5.07;2.20;;;;;;;;;;5006901;28;20429;-70
2022/07/04 02:54:52;;;;;;;2.28;1.67;;;;;;;;;;5008484;28;20101;-69
2022/07/04 02:57:18;;;;;;;4.45;1.90;;;;;;;;;;5008433;28;20049;-69
2022/07/04 02:59:43;;;;;;;5.63;1.67;;;;;;;;;;5009585;28;20021;-69
2022/07/04 03:02:08;;;;;;;9.15;1.90;;;;;;;;;;5006439;28;20022;-69
2022/07/04 03:04:34;;;;;;;2.40;1.58;;;;;;;;;;5009139;28;20036;-69
2022/07/04 03:06:59;;;;;;;7.20;1.95;;;;;;;;;;5010194;28;20065;-71
2022/07/04 03:09:27;;;;;;;9.32;1.90;;;;;;;;;;5014358;28;20061;-70
2022/07/04 03:11:52;;;;;;;6.38;1.77;;;;;;;;;;5011978;28;20010;-69
2022/07/04 03:14:17;;;;;;;4.18;1.73;;;;;;;;;;5013013;28;20030;-69
2022/07/04 03:16:42;;;;;;;7.07;1.90;;;;;;;;;;5011661;28;20061;-70
2022/07/04 03:19:08;;;;;;;2.57;1.80;;;;;;;;;;5012843;28;20684;-69
2022/07/04 03:21:33;;;;;;;3.78;1.90;;;;;;;;;;5012145;28;20273;-69
2022/07/04 03:23:58;;;;;;;2.97;1.70;;;;;;;;;;5014140;28;20017;-69
2022/07/04 03:26:25;;;;;;;9.05;1.98;;;;;;;;;;5011163;28;20022;-70
2022/07/04 03:28:50;;;;;;;3.13;1.80;;;;;;;;;;5013290;28;20492;-69
2022/07/04 03:31:16;;;;;;;3.63;2.17;;;;;;;;;;5011074;28;20014;-69
2022/07/04 03:33:41;;;;;;;4.17;1.63;;;;;;;;;;5012720;28;20033;-69
2022/07/04 03:36:06;;;;;;;6.03;1.80;;;;;;;;;;5012640;28;20367;-69
2022/07/04 03:38:31;;;;;;;3.73;1.87;;;;;;;;;;5011018;28;20364;-69
2022/07/04 03:40:56;;;;;;;4.40;1.63;;;;;;;;;;5011715;28;20272;-69
2022/07/04 03:43:21;;;;;;;4.13;1.77;;;;;;;;;;5012452;28;20737;-69
2022/07/04 03:45:47;;;;;;;4.07;1.70;;;;;;;;;;5010965;28;20269;-69
2022/07/04 03:48:12;;;;;;;8.17;1.70;;;;;;;;;;5012180;28;20278;-69
2022/07/04 03:50:37;;;;;;;7.33;1.70;;;;;;;;;;5012706;28;20295;-69
2022/07/04 03:53:02;;;;;;;10.17;1.70;;;;;;;;;;5028345;28;20273;-69
2022/07/04 03:55:27;;;;;;;5.65;1.70;;;;;;;;;;5011978;28;20265;-69
2022/07/04 03:57:52;;;;;;;3.67;1.63;;;;;;;;;;5011829;28;20049;-69
2022/07/04 04:00:18;;;;;;;1.92;1.40;;;;;;;;;;5012630;28;20291;-69
2022/07/04 04:02:43;;;;;;;10.47;1.70;;;;;;;;;;5011312;28;20026;-69
2022/07/04 04:05:26;;;;;;;6.73;1.80;;;;;;;;;;5010868;28;20304;-69
2022/07/04 04:07:51;;;;;;;6.88;1.80;;;;;;;;;;5010663;28;20379;-69
2022/07/04 04:10:17;;;;;;;5.45;1.55;;;;;;;;;;5010805;28;20105;-70
2022/07/04 04:12:42;;;;;;;5.00;1.90;;;;;;;;;;5011459;28;20014;-69
2022/07/04 04:15:08;;;;;;;5.73;2.10;;;;;;;;;;5010645;28;20030;-69
2022/07/04 04:17:33;;;;;;;6.10;1.85;;;;;;;;;;5009825;28;20291;-69
2022/07/04 04:19:58;;;;;;;4.53;1.77;;;;;;;;;;5012576;28;20021;-69
2022/07/04 04:22:23;;;;;;;5.63;1.40;;;;;;;;;;5009255;28;20359;-69
2022/07/04 04:24:48;;;;;;;6.37;1.50;;;;;;;;;;5012190;28;20273;-69
2022/07/04 04:27:13;;;;;;;2.70;1.63;;;;;;;;;;5010380;28;20379;-69
2022/07/04 04:29:39;;;;;;;4.13;1.43;;;;;;;;;;5009583;28;20268;-69
2022/07/04 04:32:04;;;;;;;9.50;1.63;;;;;;;;;;5010528;28;20284;-69
2022/07/04 04:34:29;;;;;;;3.00;1.50;;;;;;;;;;5010846;28;20269;-70
2022/07/04 04:36:54;;;;;;;4.55;1.80;;;;;;;;;;5010521;28;20081;-69
2022/07/04 04:39:19;;;;;;;3.58;1.63;;;;;;;;;;5010537;28;20033;-69
2022/07/04 04:41:45;;;;;;;3.73;1.63;;;;;;;;;;5011104;28;20038;-69
2022/07/04 04:44:10;;;;;;;3.90;1.30;;;;;;;;;;5011414;28;20253;-69
2022/07/04 04:46:35;;;;;;;4.63;1.50;;;;;;;;;;5009365;28;20030;-69
2022/07/04 04:49:00;;;;;;;2.87;1.67;;;;;;;;;;5010612;28;20700;-69
2022/07/04 04:51:25;;;;;;;5.97;1.90;;;;;;;;;;5010694;28;20328;-69
2022/07/04 04:53:51;;;;;;;3.33;1.73;;;;;;;;;;5008771;28;20697;-69
2022/07/04 04:56:16;;;;;;;6.20;1.70;;;;;;;;;;5007400;28;20029;-69
2022/07/04 04:58:41;;;;;;;7.40;1.92;;;;;;;;;;5007960;28;20272;-69
2022/07/04 05:01:06;;;;;;;5.07;2.37;;;;;;;;;;5007784;28;20391;-69
2022/07/04 05:03:32;;;;;;;3.50;2.28;;;;;;;;;;5009973;28;20269;-69
2022/07/04 05:05:57;;;;;;;9.00;2.63;;;;;;;;;;5005958;28;20057;-69
2022/07/04 05:08:24;;;;;;;2.45;1.80;;;;;;;;;;5008144;28;20390;-69
2022/07/04 05:10:50;;;;;;;7.90;2.30;;;;;;;;;;5008526;28;20014;-69
2022/07/04 05:13:15;;;;;;;6.03;2.47;;;;;;;;;;5007133;28;20437;-69
2022/07/04 05:15:40;;;;;;;5.32;2.38;;;;;;;;;;5007529;28;20351;-68
2022/07/04 05:18:05;;;;;;;4.17;1.87;;;;;;;;;;5006264;28;20018;-69
2022/07/04 05:20:32;;;;;;;4.63;2.13;;;;;;;;;;5007252;28;20273;-70
2022/07/04 05:22:57;;;;;;;4.55;2.00;;;;;;;;;;5009165;28;20013;-69
2022/07/04 05:25:22;;;;;;;4.17;1.63;;;;;;;;;;5004958;28;20041;-69
2022/07/04 05:27:48;;;;;;;4.72;1.50;;;;;;;;;;5008438;28;20340;-69
2022/07/04 05:30:13;;;;;;;7.22;1.90;;;;;;;;;;5008360;28;20045;-69
2022/07/04 05:32:41;;;;;;;3.60;1.77;;;;;;;;;;5007001;28;20076;-69
2022/07/04 05:35:07;;;;;;;3.78;2.15;;;;;;;;;;5006597;28;20042;-69
2022/07/04 05:37:32;;;;;;;7.07;1.30;;;;;;;;;;5007066;28;20099;-69
2022/07/04 05:39:57;;;;;;;10.40;1.80;;;;;;;;;;5006671;28;20026;-69
2022/07/04 05:42:23;;;;;;;5.50;1.90;;;;;;;;;;5008571;28;20648;-69
2022/07/04 05:44:48;;;;;;;6.25;1.60;;;;;;;;;;5007185;28;21290;-70
2022/07/04 05:47:14;;;;;;;4.57;2.13;;;;;;;;;;5006062;28;20068;-69
2022/07/04 05:49:39;;;;;;;4.27;1.63;;;;;;;;;;5008212;28;20022;-70
2022/07/04 05:52:04;;;;;;;4.13;1.90;;;;;;;;;;5009799;28;20300;-70
2022/07/04 05:54:29;;;;;;;6.90;2.42;;;;;;;;;;5008623;28;20279;-70
2022/07/04 05:56:54;;;;;;;5.30;1.87;;;;;;;;;;5010325;28;20470;-71
2022/07/04 05:59:19;;;;;;;6.07;2.08;;;;;;;;;;5008506;28;20269;-70
2022/07/04 06:01:45;;;;;;;8.20;2.00;;;;;;;;;;5008724;28;20061;-70
2022/07/04 06:04:10;;;;;;;8.40;2.20;;;;;;;;;;5007510;28;20681;-70
2022/07/04 06:06:35;;;;;;;7.70;2.10;;;;;;;;;;5008701;28;20288;-70
2022/07/04 06:09:02;;;;;;;7.97;2.35;;;;;;;;;;5009417;28;20041;-70
2022/07/04 06:11:28;;;;;;;7.75;2.50;;;;;;;;;;5008304;28;20041;-70
2022/07/04 06:13:53;;;;;;;9.00;2.97;;;;;;;;;;5008540;28;20022;-70
2022/07/04 06:16:18;;;;;;;9.67;2.33;;;;;;;;;;5008890;28;20068;-69
2022/07/04 06:18:43;;;;;;;11.50;3.20;;;;;;;;;;5010294;28;20268;-70
2022/07/04 06:21:09;;;;;;;11.10;2.97;;;;;;;;;;5009958;28;20033;-70
2022/07/04 06:23:34;;;;;;;11.88;3.70;;;;;;;;;;5010268;28;20785;-70
2022/07/04 06:25:59;;;;;;;9.52;2.95;;;;;;;;;;5003916;28;20113;-70
2022/07/04 06:28:25;;;;;;;12.60;3.90;;;;;;;;;;5020819;28;20100;-70
2022/07/04 06:30:50;;;;;;;9.02;3.10;;;;;;;;;;5009130;28;20014;-70
2022/07/04 06:33:15;;;;;;;6.37;2.93;;;;;;;;;;5008048;28;20367;-71
2022/07/04 06:35:56;;;;;;;2.58;1.63;;;;;;;;;;5009948;28;20257;-69
2022/07/04 06:38:23;;;;;;;11.88;3.45;;;;;;;;;;4995452;28;20025;-70
2022/07/04 06:40:49;;;;;;;9.82;3.03;;;;;;;;;;5007421;28;20018;-69
2022/07/04 06:43:15;;;;;;;8.10;3.20;;;;;;;;;;5010082;28;20529;-70
2022/07/04 06:45:40;;;;;;;6.10;2.17;;;;;;;;;;5009543;28;20026;-70
2022/07/04 06:48:06;;;;;;;8.05;2.40;;;;;;;;;;5008613;28;20083;-69
2022/07/04 06:50:34;;;;;;;9.30;2.75;;;;;;;;;;5008917;28;20064;-69
2022/07/04 06:53:00;;;;;;;9.90;2.92;;;;;;;;;;5003978;28;20018;-70
2022/07/04 06:55:25;;;;;;;6.35;2.40;;;;;;;;;;5003392;28;20018;-70
2022/07/04 06:57:50;;;;;;;6.63;2.67;;;;;;;;;;5007033;28;20076;-70
2022/07/04 07:00:16;;;;;;;6.20;2.00;;;;;;;;;;5005814;28;20508;-69
2022/07/04 07:02:41;;;;;;;10.05;3.03;;;;;;;;;;5004494;28;20300;-70
2022/07/04 07:05:07;;;;;;;6.38;2.13;;;;;;;;;;5005187;28;20195;-69
2022/07/04 07:07:32;;;;;;;11.13;2.30;;;;;;;;;;5005896;28;20263;-69
2022/07/04 07:09:57;;;;;;;5.37;2.50;;;;;;;;;;5007541;28;20174;-70
2022/07/04 07:12:22;;;;;;;13.10;2.47;;;;;;;;;;5007994;28;20280;-69
2022/07/04 07:14:48;;;;;;;4.40;2.13;;;;;;;;;;5006546;28;20280;-69
2022/07/04 07:17:15;;;;;;;10.75;2.90;;;;;;;;;;5006820;28;20026;-69
2022/07/04 07:19:40;;;;;;;13.02;3.10;;;;;;;;;;5007733;28;20394;-69
2022/07/04 07:22:05;;;;;;;6.60;2.83;;;;;;;;;;5006378;28;20029;-69
2022/07/04 07:24:30;;;;;;;8.63;2.57;;;;;;;;;;5008772;28;20109;-69
2022/07/04 07:26:56;;;;;;;8.70;3.00;;;;;;;;;;5008091;28;20281;-69
2022/07/04 07:29:21;;;;;;;13.27;3.05;;;;;;;;;;5005215;28;20327;-69
2022/07/04 07:31:46;;;;;;;8.40;2.03;;;;;;;;;;5008178;28;20022;-69
2022/07/04 07:34:11;;;;;;;19.80;3.47;;;;;;;;;;5006087;28;20388;-69
2022/07/04 07:36:37;;;;;;;15.10;2.17;;;;;;;;;;5009939;28;20264;-69
2022/07/04 07:39:02;;;;;;;8.20;1.67;;;;;;;;;;5006971;28;20281;-70
2022/07/04 07:41:27;;;;;;;8.98;1.63;;;;;;;;;;5007167;28;20342;-69
2022/07/04 07:43:52;;;;;;;6.43;2.00;;;;;;;;;;5006910;28;20030;-70
2022/07/04 07:46:17;;;;;;;9.27;1.90;;;;;;;;;;5007381;28;20026;-69
2022/07/04 07:48:43;;;;;;;9.43;2.53;;;;;;;;;;5006286;28;20463;-70
2022/07/04 07:51:09;;;;;;;8.98;1.52;;;;;;;;;;5005346;28;20292;-69
2022/07/04 07:53:34;;;;;;;13.98;1.42;;;;;;;;;;5009170;28;20024;-70
2022/07/04 07:56:00;;;;;;;5.57;1.37;;;;;;;;;;5011525;28;20452;-70
2022/07/04 07:58:25;;;;;;;6.40;1.77;;;;;;;;;;5011319;28;20026;-70
2022/07/04 08:00:50;;;;;;;8.90;1.45;;;;;;;;;;5009240;28;20014;-70
2022/07/04 08:05:59;;;;;;;8.88;1.27;;;;;;;;;;5010763;28;20421;-70
2022/07/04 08:08:24;;;;;;;8.37;0.90;;;;;;;;;;5007313;28;20022;-69
2022/07/04 08:10:50;;;;;;;8.37;0.77;;;;;;;;;;5012448;28;20036;-69
2022/07/04 08:13:15;;;;;;;3.80;1.08;;;;;;;;;;5008652;28;20322;-70
2022/07/04 08:15:40;;;;;;;4.43;0.87;;;;;;;;;;5009416;28;20471;-69
2022/07/04 08:18:05;;;;;;;4.10;0.90;;;;;;;;;;5007452;28;20288;-69
2022/07/04 08:20:31;;;;;;;7.65;1.23;;;;;;;;;;5011052;28;20283;-70
2022/07/04 08:22:56;;;;;;;11.15;1.40;;;;;;;;;;5007333;28;20567;-69
2022/07/04 08:25:21;;;;;;;2.60;0.63;;;;;;;;;;5008875;28;20526;-70
2022/07/04 08:27:47;;;;;;;6.93;1.10;;;;;;;;;;5009312;28;20025;-69
2022/07/04 08:30:12;;;;;;;10.70;1.88;;;;;;;;;;5005089;28;20028;-69
2022/07/04 08:32:37;;;;;;;3.63;1.15;;;;;;;;;;5009920;28;20014;-69
2022/07/04 08:35:03;;;;;;;10.30;1.10;;;;;;;;;;5004989;28;20010;-70
2022/07/04 08:37:28;;;;;;;3.75;0.98;;;;;;;;;;5012281;28;20406;-69
2022/07/04 08:39:54;;;;;;;9.90;1.52;;;;;;;;;;4998868;28;20096;-69
2022/07/04 08:42:20;;;;;;;4.68;0.70;;;;;;;;;;5003565;28;20446;-69
2022/07/04 08:44:52;;;;;;;2.72;0.50;;;;;;;;;;4999387;28;20019;-70
2022/07/04 08:47:22;;;;;;;3.72;1.30;;;;;;;;;;5001204;28;20017;-69
2022/07/04 08:49:58;;;;;;;3.03;1.00;;;;;;;;;;5004542;28;20105;-69
2022/07/04 08:52:30;;;;;;;5.70;1.15;;;;;;;;;;5004178;28;20049;-70
2022/07/04 09:00:24;;;;;;;2.78;0.70;;;;;;;;;;5003746;28;20036;-70
2022/07/04 09:02:50;;;;;;;5.43;1.00;;;;;;;;;;5009549;28;20471;-70
2022/07/04 09:05:15;;;;;;;7.93;1.70;;;;;;;;;;5008501;28;20036;-69
2022/07/04 09:07:41;;;;;;;12.73;1.60;;;;;;;;;;5009904;28;20030;-69
2022/07/04 09:10:06;;;;;;;21.75;2.22;;;;;;;;;;5008590;28;20025;-69
2022/07/04 09:12:32;;;;;;;8.73;1.08;;;;;;;;;;5008414;28;20020;-69
2022/07/04 09:14:59;;;;;;;5.60;0.80;;;;;;;;;;5008109;28;20109;-70
2022/07/04 09:17:24;;;;;;;3.90;0.80;;;;;;;;;;5007343;28;20030;-69
2022/07/04 09:20:08;;;;;;;14.50;1.57;;;;;;;;;;5005735;28;20101;-70
2022/07/04 09:22:33;;;;;;;5.68;1.02;;;;;;;;;;5011734;28;20276;-70
2022/07/04 09:24:59;;;;;;;8.00;0.80;;;;;;;;;;5006062;28;20505;-69
2022/07/04 09:27:31;;;;;;;4.10;0.77;;;;;;;;;;5008607;28;20295;-69
2022/07/04 09:29:56;;;;;;;24.80;3.47;;;;;;;;;;5007471;28;20268;-71
2022/07/04 09:32:33;;;;;;;2.35;0.60;;;;;;;;;;5006585;28;20026;-69
2022/07/04 09:34:58;;;;;;;9.80;1.38;;;;;;;;;;5003950;28;21234;-69
2022/07/04 09:37:33;;;;;;;8.00;1.13;;;;;;;;;;5008323;28;20017;-69
2022/07/04 09:39:58;;;;;;;1.85;0.80;;;;;;;;;;5006376;28;20836;-69
2022/07/04 09:42:23;;;;;;;4.27;0.53;;;;;;;;;;5007396;28;20124;-69
2022/07/04 09:44:49;;;;;;;13.40;0.60;;;;;;;;;;5004392;28;20025;-69
2022/07/04 09:47:24;;;;;;;4.75;1.05;;;;;;;;;;5006354;28;20498;-69
2022/07/04 09:50:02;;;;;;;5.47;0.80;;;;;;;;;;5006203;28;20144;-69
2022/07/04 09:52:29;;;;;;;8.35;0.82;;;;;;;;;;5006265;28;21700;-69
2022/07/04 09:55:07;;;;;;;5.68;0.88;;;;;;;;;;5004380;28;20056;-69
2022/07/04 09:57:32;;;;;;;2.45;0.80;;;;;;;;;;5004367;28;20022;-69
2022/07/04 10:00:16;;;;;;;2.83;1.00;;;;;;;;;;5002026;28;20580;-69
2022/07/04 10:02:41;;;;;;;6.47;1.20;;;;;;;;;;5006093;28;20796;-69
2022/07/04 10:05:07;;;;;;;6.93;1.20;;;;;;;;;;5008334;28;20101;-69
2022/07/04 10:07:34;;;;;;;3.67;1.10;;;;;;;;;;5009463;28;20299;-70
2022/07/04 10:09:59;;;;;;;6.28;0.90;;;;;;;;;;5006852;28;20467;-69
2022/07/04 10:12:28;;;;;;;2.50;0.70;;;;;;;;;;5007492;28;20025;-69
2022/07/04 10:14:54;;;;;;;3.08;0.93;;;;;;;;;;5002782;28;20018;-69
2022/07/04 10:17:19;;;;;;;1.83;0.65;;;;;;;;;;5002767;28;20028;-69
2022/07/04 10:19:44;;;;;;;5.33;1.27;;;;;;;;;;5000108;28;20033;-69
2022/07/04 10:22:10;;;;;;;5.38;1.02;;;;;;;;;;5003621;28;20486;-69
2022/07/04 10:24:35;;;;;;;6.07;0.55;;;;;;;;;;5006907;28;20415;-69
2022/07/04 10:27:01;;;;;;;7.10;0.90;;;;;;;;;;5006199;28;20025;-69
2022/07/04 10:29:26;;;;;;;10.57;1.35;;;;;;;;;;5009740;28;20466;-69
2022/07/04 10:31:51;;;;;;;3.88;1.27;;;;;;;;;;5007404;28;20471;-69
2022/07/04 10:34:17;;;;;;;3.27;0.80;;;;;;;;;;5005217;28;20022;-69
2022/07/04 10:36:50;;;;;;;3.38;0.73;;;;;;;;;;5009098;28;20389;-69
2022/07/04 10:39:21;;;;;;;4.40;0.88;;;;;;;;;;5008291;28;20034;-69
2022/07/04 10:41:58;;;;;;;1.77;0.60;;;;;;;;;;5022968;28;20022;-69
2022/07/04 10:44:25;;;;;;;2.83;0.45;;;;;;;;;;5002102;28;20506;-70
2022/07/04 10:46:51;;;;;;;3.40;0.60;;;;;;;;;;5003358;28;20037;-69
2022/07/04 10:49:16;;;;;;;5.82;1.08;;;;;;;;;;5004886;28;20018;-69
2022/07/04 10:51:42;;;;;;;7.68;0.85;;;;;;;;;;5005569;28;20018;-69
2022/07/04 10:54:17;;;;;;;3.60;0.80;;;;;;;;;;5006516;28;20172;-69
2022/07/04 10:56:45;;;;;;;3.75;0.90;;;;;;;;;;5000486;28;20041;-69
2022/07/04 10:59:11;;;;;;;2.35;0.80;;;;;;;;;;5005507;28;20152;-69
2022/07/04 11:01:37;;;;;;;5.20;0.70;;;;;;;;;;5005701;28;20112;-69
2022/07/04 11:04:02;;;;;;;3.97;0.63;;;;;;;;;;5001331;28;20545;-69
2022/07/04 11:06:33;;;;;;;1.88;0.55;;;;;;;;;;5006014;28;20029;-71
2022/07/04 11:09:16;;;;;;;3.40;0.70;;;;;;;;;;5008104;28;20053;-69
2022/07/04 11:11:47;;;;;;;4.88;0.70;;;;;;;;;;5007616;28;20088;-69
2022/07/04 11:14:31;;;;;;;2.22;0.70;;;;;;;;;;5007271;28;20026;-69
2022/07/04 11:16:56;;;;;;;3.70;0.63;;;;;;;;;;5003067;28;20065;-69
2022/07/04 11:19:22;;;;;;;2.83;0.67;;;;;;;;;;5006806;28;20423;-69
2022/07/04 11:21:47;;;;;;;3.70;0.73;;;;;;;;;;5003961;28;20721;-69
2022/07/04 11:24:12;;;;;;;4.45;0.80;;;;;;;;;;5006501;28;20121;-69
2022/07/04 11:26:37;;;;;;;2.58;0.55;;;;;;;;;;4997585;28;20117;-69
2022/07/04 11:29:03;;;;;;;2.47;0.80;;;;;;;;;;5008680;28;20017;-69
2022/07/04 11:31:35;;;;;;;3.20;0.80;;;;;;;;;;5010175;28;20025;-69
2022/07/04 11:34:00;;;;;;;1.95;0.75;;;;;;;;;;5010594;28;20268;-69
2022/07/04 11:36:25;;;;;;;6.67;0.90;;;;;;;;;;5011611;28;20018;-69
2022/07/04 11:38:53;;;;;;;6.03;0.80;;;;;;;;;;5013022;28;20018;-70
2022/07/04 11:47:00;;;;;;;5.13;0.95;;;;;;;;;;5006412;28;20032;-69
2022/07/04 11:49:25;;;;;;;3.08;0.70;;;;;;;;;;5009792;28;20098;-69
2022/07/04 11:51:52;;;;;;;5.53;2.40;;;;;;;;;;5010251;28;20406;-69
2022/07/04 11:54:18;;;;;;;7.28;0.77;;;;;;;;;;5010429;28;20267;-69
2022/07/04 11:56:44;;;;;;;4.82;0.95;;;;;;;;;;5006330;28;20022;-69
2022/07/04 11:59:13;;;;;;;6.03;1.38;;;;;;;;;;5010472;28;20378;-69
2022/07/04 12:01:39;;;;;;;6.50;1.25;;;;;;;;;;5004716;28;20113;-69
2022/07/04 12:04:11;;;;;;;4.43;1.02;;;;;;;;;;5009953;28;20105;-69
2022/07/04 12:06:36;;;;;;;5.82;0.95;;;;;;;;;;5008712;28;20091;-69
2022/07/04 12:09:02;;;;;;;4.78;0.60;;;;;;;;;;5010779;28;20014;-70
2022/07/04 12:11:46;;;;;;;2.63;0.70;;;;;;;;;;5009187;28;20014;-70
2022/07/04 12:14:14;;;;;;;2.65;0.80;;;;;;;;;;5007961;28;20510;-69
2022/07/04 12:16:39;;;;;;;3.35;0.70;;;;;;;;;;5006822;28;20030;-69
2022/07/04 12:19:11;;;;;;;4.23;1.10;;;;;;;;;;5010222;28;20025;-69
2022/07/04 12:21:36;;;;;;;7.93;0.90;;;;;;;;;;5005600;28;20791;-69
2022/07/04 12:24:04;;;;;;;9.05;1.25;;;;;;;;;;5010900;28;20022;-69
2022/07/04 12:26:32;;;;;;;3.25;0.70;;;;;;;;;;5008854;28;20037;-69
2022/07/04 12:28:58;;;;;;;3.50;0.70;;;;;;;;;;5011140;28;20025;-69
2022/07/04 12:31:39;;;;;;;2.60;0.57;;;;;;;;;;5005077;28;20014;-69
2022/07/04 12:34:12;;;;;;;2.55;0.98;;;;;;;;;;5006229;28;20045;-69
2022/07/04 12:36:54;;;;;;;1.83;0.60;;;;;;;;;;5004586;28;20033;-70
2022/07/04 12:39:37;;;;;;;3.65;0.68;;;;;;;;;;5010172;28;20435;-69
2022/07/04 12:42:03;;;;;;;4.80;0.82;;;;;;;;;;5005716;28;20033;-69
2022/07/04 12:44:29;;;;;;;1.20;0.55;;;;;;;;;;5008359;28;20056;-69
2022/07/04 12:46:55;;;;;;;5.82;0.70;;;;;;;;;;5007835;28;20030;-69
2022/07/04 12:49:21;;;;;;;6.15;1.00;;;;;;;;;;5010036;28;20486;-69
2022/07/04 12:51:46;;;;;;;4.88;0.77;;;;;;;;;;5006531;28;20549;-69
2022/07/04 12:54:11;;;;;;;4.55;1.25;;;;;;;;;;5001757;28;20099;-70
2022/07/04 12:56:41;;;;;;;2.60;0.70;;;;;;;;;;5008325;28;20029;-70
2022/07/04 12:59:08;;;;;;;8.45;0.93;;;;;;;;;;5009120;28;20022;-70
2022/07/04 13:01:33;;;;;;;7.68;0.70;;;;;;;;;;5008390;28;20022;-70
2022/07/04 13:03:59;;;;;;;3.38;0.73;;;;;;;;;;5009894;28;20034;-71
2022/07/04 13:06:24;;;;;;;4.38;0.52;;;;;;;;;;5001284;28;20030;-71
2022/07/04 13:08:50;;;;;;;3.85;0.95;;;;;;;;;;5005238;28;20479;-71
2022/07/04 13:13:59;;;;;;;2.72;0.68;;;;;;;;;;5019579;23;20056;-85
2022/07/04 13:16:24;;;;;;;3.87;0.60;;;;;;;;;;5025946;28;20030;-85
2022/07/04 13:18:49;;;;;;;7.40;1.00;;;;;;;;;;5022421;28;20282;-86
2022/07/04 13:21:15;;;;;;;3.15;0.65;;;;;;;;;;5022390;28;20033;-86
2022/07/04 13:23:40;;;;;;;6.57;1.43;;;;;;;;;;5022937;28;20065;-86
2022/07/04 13:26:05;;;;;;;6.13;0.80;;;;;;;;;;5021821;28;20361;-86
2022/07/04 13:28:30;;;;;;;9.10;0.80;;;;;;;;;;5026636;28;20044;-86
2022/07/04 13:30:56;;;;;;;3.10;0.77;;;;;;;;;;5022232;28;20029;-85
2022/07/04 13:33:21;;;;;;;7.45;0.60;;;;;;;;;;5024969;28;20025;-87
2022/07/04 13:35:46;;;;;;;11.05;0.90;;;;;;;;;;5027099;28;20106;-86
2022/07/04 13:38:14;;;;;;;6.95;1.02;;;;;;;;;;5025595;28;20049;-86
2022/07/04 13:40:41;;;;;;;2.83;0.70;;;;;;;;;;5027142;28;20037;-85
2022/07/04 13:43:09;;;;;;;7.13;1.05;;;;;;;;;;5021820;28;20061;-86
2022/07/04 13:45:35;;;;;;;6.28;1.10;;;;;;;;;;5024939;28;20017;-86
2022/07/04 13:48:00;;;;;;;7.38;0.70;;;;;;;;;;5025721;28;20021;-86
2022/07/04 13:50:25;;;;;;;2.03;0.80;;;;;;;;;;5021620;28;20025;-85
2022/07/04 13:52:50;;;;;;;6.73;0.60;;;;;;;;;;5023007;28;20282;-86
2022/07/04 13:55:19;;;;;;;4.60;1.50;;;;;;;;;;5019385;28;20279;-86
2022/07/04 13:57:44;;;;;;;3.47;0.80;;;;;;;;;;5022644;28;20052;-86
2022/07/04 14:00:13;;;;;;;7.40;0.90;;;;;;;;;;5022693;28;20033;-85
2022/07/04 14:02:38;;;;;;;5.45;0.98;;;;;;;;;;5027218;28;20035;-90
2022/07/04 14:05:03;;;;;;;3.55;0.93;;;;;;;;;;5027386;28;20026;-88
2022/07/04 14:07:29;;;;;;;2.50;1.10;;;;;;;;;;5017954;28;20026;-90
2022/07/04 14:09:54;;;;;;;2.97;0.98;;;;;;;;;;5013632;28;20067;-87
2022/07/04 14:12:20;;;;;;;3.78;0.57;;;;;;;;;;5018136;28;20101;-90
2022/07/04 14:14:45;;;;;;;2.63;0.73;;;;;;;;;;5021336;28;20028;-89
2022/07/04 14:17:10;;;;;;;6.38;0.60;;;;;;;;;;5023701;28;20490;-87
2022/07/04 14:19:36;;;;;;;11.80;0.80;;;;;;;;;;5023990;28;20036;-87
2022/07/04 14:22:01;;;;;;;7.97;0.95;;;;;;;;;;5028228;22;20054;-69
2022/07/04 14:24:26;;;;;;;5.53;0.80;;;;;;;;;;5007455;28;20494;-69
2022/07/04 14:26:52;;;;;;;2.78;0.80;;;;;;;;;;5009486;28;20025;-69
2022/07/04 14:29:17;;;;;;;6.25;0.80;;;;;;;;;;5008190;28;20551;-69
2022/07/04 14:31:42;;;;;;;2.75;0.95;;;;;;;;;;5002428;28;20107;-69
2022/07/04 14:34:11;;;;;;;5.87;1.10;;;;;;;;;;5003611;28;20473;-69
2022/07/04 14:36:36;;;;;;;4.10;1.25;;;;;;;;;;5002149;28;20026;-69
2022/07/04 14:39:01;;;;;;;11.00;1.17;;;;;;;;;;5004850;28;20022;-68
2022/07/04 14:41:26;;;;;;;11.98;1.15;;;;;;;;;;5005647;28;20277;-69
2022/07/04 14:43:52;;;;;;;6.50;1.47;;;;;;;;;;5008768;28;20049;-69
2022/07/04 14:46:17;;;;;;;3.20;0.70;;;;;;;;;;5006580;28;20017;-69
2022/07/04 14:48:43;;;;;;;4.37;1.40;;;;;;;;;;5004206;28;20646;-69
2022/07/04 14:51:08;;;;;;;4.00;0.93;;;;;;;;;;5003094;28;20641;-69
2022/07/04 14:53:33;;;;;;;3.20;1.03;;;;;;;;;;5008479;28;20022;-69
2022/07/04 14:55:58;;;;;;;3.03;0.98;;;;;;;;;;5009195;28;20156;-69